Time;durP1;ratioP1;P1;durP2;ratioP2;P2;SDS_P1;SDS_P2;PMS_P1;PMS_P2;Temp;Humidity;BMP_temperature;BMP_pressure;BME280_temperature;BME280_humidity;BME280_pressure;Samples;Min_cycle;Max_cycle;Signal;HPM_P1;HPM_P2
2022/09/07 00:01:04;;;;;;;9.50;8.30;;;19.30;99.90;;;;;;5047179;28;20470;-30
2022/09/07 00:03:30;;;;;;;9.07;8.20;;;19.30;99.90;;;;;;5036682;28;20037;-29
2022/09/07 00:05:56;;;;;;;13.15;8.55;;;19.20;99.90;;;;;;5052439;28;20033;-30
2022/09/07 00:08:25;;;;;;;11.65;8.98;;;19.20;99.90;;;;;;5052100;28;20114;-30
2022/09/07 00:10:59;;;;;;;12.50;9.23;;;19.20;99.90;;;;;;5034458;28;20106;-29
2022/09/07 00:13:28;;;;;;;9.70;8.80;;;19.20;99.90;;;;;;5034605;28;20511;-30
2022/09/07 00:15:54;;;;;;;9.13;7.85;;;19.20;99.90;;;;;;5034383;28;20394;-30
2022/09/07 00:18:20;;;;;;;9.05;8.27;;;19.20;99.90;;;;;;5034114;28;20123;-30
2022/09/07 00:20:46;;;;;;;10.98;8.90;;;19.20;99.90;;;;;;5048852;28;20033;-31
2022/09/07 00:23:12;;;;;;;10.38;9.20;;;19.20;99.90;;;;;;5034070;28;20048;-30
2022/09/07 00:25:39;;;;;;;9.60;8.68;;;19.20;99.90;;;;;;5034249;28;20073;-29
2022/09/07 00:28:06;;;;;;;10.18;9.15;;;19.20;99.90;;;;;;5034274;28;20073;-29
2022/09/07 00:30:34;;;;;;;10.35;9.48;;;19.10;99.90;;;;;;5033988;28;20128;-31
2022/09/07 00:32:59;;;;;;;10.73;9.38;;;19.00;99.90;;;;;;5033999;28;20045;-31
2022/09/07 00:35:26;;;;;;;12.00;9.95;;;19.00;99.90;;;;;;5033931;28;20037;-29
2022/09/07 00:37:52;;;;;;;13.00;10.70;;;19.00;99.90;;;;;;5034296;28;20040;-29
2022/09/07 00:40:18;;;;;;;11.38;10.23;;;19.00;99.90;;;;;;5034492;28;20040;-30
2022/09/07 00:42:43;;;;;;;13.90;10.20;;;18.90;99.90;;;;;;5054079;28;20047;-29
2022/09/07 00:45:18;;;;;;;11.70;10.40;;;18.80;99.90;;;;;;5054004;28;20469;-29
2022/09/07 00:47:59;;;;;;;12.98;11.48;;;18.70;99.90;;;;;;5030352;28;20033;-29
2022/09/07 00:50:50;;;;;;;13.25;11.82;;;18.70;99.90;;;;;;5035667;28;20033;-30
2022/09/07 00:53:45;;;;;;;16.13;13.15;;;18.60;99.90;;;;;;5034016;28;20478;-30
2022/09/07 00:56:12;;;;;;;14.88;13.45;;;18.60;99.90;;;;;;5034044;28;20414;-29
2022/09/07 00:58:41;;;;;;;16.10;14.07;;;18.50;99.90;;;;;;5037983;28;20052;-30
2022/09/07 01:01:08;;;;;;;15.38;13.98;;;18.50;99.90;;;;;;5037732;28;20048;-29
2022/09/07 01:03:42;;;;;;;21.20;18.92;;;18.40;99.90;;;;;;5038182;28;20040;-29
2022/09/07 01:06:17;;;;;;;20.60;18.52;;;18.40;99.90;;;;;;5037934;28;20041;-29
2022/09/07 01:08:44;;;;;;;17.73;16.20;;;18.30;99.90;;;;;;5038117;28;20037;-28
2022/09/07 01:11:11;;;;;;;20.70;18.35;;;18.30;99.90;;;;;;5037901;28;20044;-29
2022/09/07 01:13:42;;;;;;;21.17;19.15;;;18.20;99.90;;;;;;5038098;28;20091;-29
2022/09/07 01:16:45;;;;;;;20.35;18.42;;;18.20;99.90;;;;;;5037794;28;20092;-28
2022/09/07 01:19:33;;;;;;;23.90;21.73;;;18.20;99.90;;;;;;5055637;28;20491;-29
2022/09/07 01:22:18;;;;;;;24.55;22.10;;;18.20;99.90;;;;;;5037249;28;20057;-29
2022/09/07 01:25:01;;;;;;;25.02;22.92;;;18.20;99.90;;;;;;5037611;28;20083;-31
2022/09/07 01:27:52;;;;;;;24.75;22.65;;;18.20;99.90;;;;;;5036296;28;20533;-29
2022/09/07 01:30:21;;;;;;;22.75;20.85;;;18.20;99.90;;;;;;5035316;28;20545;-29
2022/09/07 01:33:31;;;;;;;26.45;23.73;;;18.20;99.90;;;;;;5035004;28;20040;-29
2022/09/07 01:36:17;;;;;;;25.42;23.23;;;18.30;99.90;;;;;;5035401;28;20052;-30
2022/09/07 01:38:51;;;;;;;20.65;18.70;;;18.20;99.90;;;;;;5034874;28;20049;-29
2022/09/07 01:41:26;;;;;;;21.60;19.48;;;18.20;99.90;;;;;;5035032;28;20124;-29
2022/09/07 01:44:04;;;;;;;19.48;17.77;;;18.20;99.90;;;;;;5035553;28;20044;-29
2022/09/07 01:46:48;;;;;;;17.95;16.38;;;18.20;99.90;;;;;;5037051;28;20087;-29
2022/09/07 01:49:22;;;;;;;19.42;17.60;;;18.20;99.90;;;;;;5037043;28;20051;-29
2022/09/07 01:51:56;;;;;;;19.58;17.92;;;18.20;99.90;;;;;;5020779;28;20433;-30
2022/09/07 01:54:30;;;;;;;21.00;19.30;;;18.10;99.90;;;;;;5037348;28;20052;-29
2022/09/07 01:57:03;;;;;;;21.92;20.02;;;18.10;99.90;;;;;;5037228;28;20394;-30
2022/09/07 01:59:31;;;;;;;21.83;19.83;;;18.10;99.90;;;;;;5037282;28;20056;-30
2022/09/07 02:02:08;;;;;;;22.23;20.05;;;18.10;99.90;;;;;;5037051;28;20037;-29
2022/09/07 02:04:54;;;;;;;21.98;20.05;;;18.10;99.90;;;;;;5036798;28;20041;-29
2022/09/07 02:07:28;;;;;;;20.13;18.25;;;18.10;99.90;;;;;;5020401;28;20052;-29
2022/09/07 02:10:17;;;;;;;20.90;19.05;;;18.10;99.90;;;;;;5037201;28;20067;-29
2022/09/07 02:12:43;;;;;;;21.20;19.38;;;18.10;99.90;;;;;;5036861;28;20033;-29
2022/09/07 02:15:17;;;;;;;22.70;20.52;;;18.10;99.90;;;;;;5037188;28;20094;-30
2022/09/07 02:17:47;;;;;;;22.00;20.15;;;18.10;99.90;;;;;;5036802;28;20037;-29
2022/09/07 02:20:21;;;;;;;21.45;19.52;;;18.00;99.90;;;;;;5037046;28;20045;-30
2022/09/07 02:22:56;;;;;;;21.45;19.55;;;18.00;99.90;;;;;;5037009;28;20068;-30
2022/09/07 02:25:27;;;;;;;23.30;21.25;;;18.00;99.90;;;;;;5036841;28;20094;-29
2022/09/07 02:28:03;;;;;;;22.27;20.08;;;18.00;99.90;;;;;;5036529;28;20037;-30
2022/09/07 02:30:29;;;;;;;20.38;18.58;;;18.00;99.90;;;;;;5036860;28;20060;-29
2022/09/07 02:32:55;;;;;;;20.90;18.90;;;18.00;99.90;;;;;;5036573;28;20483;-29
2022/09/07 02:35:21;;;;;;;22.63;20.55;;;17.90;99.90;;;;;;5036414;28;20044;-29
2022/09/07 02:37:53;;;;;;;22.80;20.70;;;17.90;99.90;;;;;;5036327;28;20052;-30
2022/09/07 02:40:19;;;;;;;22.17;20.17;;;17.90;99.90;;;;;;5036820;28;20194;-31
2022/09/07 02:42:47;;;;;;;21.15;19.15;;;17.90;99.90;;;;;;5036949;28;20076;-30
2022/09/07 02:45:14;;;;;;;24.30;21.90;;;17.90;99.90;;;;;;5037056;28;20498;-30
2022/09/07 02:47:57;;;;;;;22.27;20.17;;;17.90;99.90;;;;;;5036938;28;20037;-29
2022/09/07 02:50:41;;;;;;;21.33;19.40;;;17.90;99.90;;;;;;5036375;28;20043;-29
2022/09/07 02:53:36;;;;;;;21.38;19.33;;;17.90;99.90;;;;;;5036337;28;20037;-29
2022/09/07 02:56:17;;;;;;;22.05;19.95;;;17.90;99.90;;;;;;5036214;28;20037;-30
2022/09/07 02:58:53;;;;;;;21.65;19.48;;;17.80;99.90;;;;;;5036479;28;20043;-29
2022/09/07 03:01:39;;;;;;;21.30;19.33;;;17.80;99.90;;;;;;5036549;28;20120;-29
2022/09/07 03:04:16;;;;;;;20.92;18.88;;;17.80;99.90;;;;;;5022505;28;20430;-30
2022/09/07 03:06:48;;;;;;;18.77;17.08;;;17.80;99.90;;;;;;5036554;28;20037;-30
2022/09/07 03:09:21;;;;;;;19.17;17.48;;;17.80;99.90;;;;;;5036565;28;20390;-30
2022/09/07 03:11:48;;;;;;;18.45;16.75;;;17.70;99.90;;;;;;5035945;28;20036;-29
2022/09/07 03:14:23;;;;;;;17.65;16.00;;;17.70;99.90;;;;;;5054395;28;20510;-30
2022/09/07 03:16:52;;;;;;;19.17;17.50;;;17.70;99.90;;;;;;5052576;28;20045;-30
2022/09/07 03:19:18;;;;;;;20.55;17.85;;;17.70;99.90;;;;;;5052916;28;20069;-30
2022/09/07 03:21:44;;;;;;;19.00;17.17;;;17.60;99.90;;;;;;5052543;28;20064;-29
2022/09/07 03:24:09;;;;;;;18.05;16.42;;;17.60;99.90;;;;;;5052634;28;20047;-29
2022/09/07 03:26:42;;;;;;;17.88;16.27;;;17.60;99.90;;;;;;5052692;28;20120;-29
2022/09/07 03:29:08;;;;;;;18.13;16.52;;;17.60;99.90;;;;;;5052774;28;20103;-30
2022/09/07 03:31:34;;;;;;;20.15;18.35;;;17.60;99.90;;;;;;5039649;28;20041;-29
2022/09/07 03:34:00;;;;;;;18.73;17.02;;;17.60;99.90;;;;;;5035846;28;20071;-30
2022/09/07 03:36:27;;;;;;;19.58;17.77;;;17.60;99.90;;;;;;5035824;28;20045;-30
2022/09/07 03:38:54;;;;;;;19.95;17.90;;;17.60;99.90;;;;;;5035746;28;20048;-30
2022/09/07 03:41:20;;;;;;;21.23;19.23;;;17.60;99.90;;;;;;5035430;28;20158;-30
2022/09/07 03:43:46;;;;;;;20.38;18.60;;;17.60;99.90;;;;;;5035866;28;20127;-30
2022/09/07 03:46:16;;;;;;;18.25;16.55;;;17.50;99.90;;;;;;5035375;28;20048;-29
2022/09/07 03:48:42;;;;;;;20.33;18.52;;;17.50;99.90;;;;;;5034552;28;20047;-29
2022/09/07 03:51:10;;;;;;;20.83;18.90;;;17.50;99.90;;;;;;5034643;28;20045;-29
2022/09/07 03:53:38;;;;;;;18.30;16.67;;;17.50;99.90;;;;;;5034919;28;20056;-29
2022/09/07 03:56:06;;;;;;;20.25;18.40;;;17.50;99.90;;;;;;5035409;28;20045;-30
2022/09/07 03:58:33;;;;;;;19.05;17.40;;;17.50;99.90;;;;;;5035433;28;20465;-30
2022/09/07 04:01:03;;;;;;;20.17;18.35;;;17.50;99.90;;;;;;5034793;28;20678;-30
2022/09/07 04:03:29;;;;;;;18.75;17.05;;;17.50;99.90;;;;;;5035096;28;20072;-29
2022/09/07 04:05:57;;;;;;;20.50;18.80;;;17.50;99.90;;;;;;5035199;28;20095;-29
2022/09/07 04:08:31;;;;;;;18.77;17.05;;;17.50;99.90;;;;;;5034958;28;20037;-30
2022/09/07 04:11:02;;;;;;;21.35;19.40;;;17.50;99.90;;;;;;5034978;28;20040;-30
2022/09/07 04:13:29;;;;;;;18.88;17.17;;;17.50;99.90;;;;;;5035382;28;20064;-29
2022/09/07 04:15:55;;;;;;;22.55;20.42;;;17.50;99.90;;;;;;5035098;28;20083;-29
2022/09/07 04:18:22;;;;;;;18.52;16.77;;;17.50;99.90;;;;;;5035120;28;20510;-29
2022/09/07 04:20:49;;;;;;;20.60;18.73;;;17.50;99.90;;;;;;5034494;28;20040;-31
2022/09/07 04:23:16;;;;;;;18.73;17.13;;;17.50;99.90;;;;;;5034808;28;20083;-29
2022/09/07 04:25:51;;;;;;;19.92;18.08;;;17.50;99.90;;;;;;5034540;28;20490;-29
2022/09/07 04:28:18;;;;;;;18.08;16.48;;;17.50;99.90;;;;;;5033929;28;20044;-29
2022/09/07 04:30:44;;;;;;;19.60;17.95;;;17.50;99.90;;;;;;5034272;28;20041;-30
2022/09/07 04:33:10;;;;;;;22.15;20.23;;;17.50;99.90;;;;;;5054423;28;20441;-30
2022/09/07 04:35:38;;;;;;;18.67;17.08;;;17.50;99.90;;;;;;5054446;28;20044;-29
2022/09/07 04:38:04;;;;;;;20.52;18.63;;;17.50;99.90;;;;;;5054199;28;20064;-29
2022/09/07 04:40:29;;;;;;;20.25;18.40;;;17.50;99.90;;;;;;5053893;28;20040;-29
2022/09/07 04:42:55;;;;;;;19.35;17.75;;;17.50;99.90;;;;;;5040334;28;20452;-29
2022/09/07 04:45:21;;;;;;;21.52;19.50;;;17.50;99.90;;;;;;5033950;28;20037;-29
2022/09/07 04:47:50;;;;;;;22.15;20.05;;;17.40;99.90;;;;;;5034334;28;20044;-29
2022/09/07 04:50:17;;;;;;;23.67;21.48;;;17.40;99.90;;;;;;5033668;28;20037;-31
2022/09/07 04:52:43;;;;;;;27.58;25.23;;;17.40;99.90;;;;;;5033793;28;20041;-29
2022/09/07 04:55:10;;;;;;;24.33;22.23;;;17.40;99.90;;;;;;5033038;28;20139;-29
2022/09/07 04:57:35;;;;;;;26.55;24.20;;;17.40;99.90;;;;;;5030881;28;20517;-30
2022/09/07 05:00:03;;;;;;;25.77;23.52;;;17.30;99.90;;;;;;5030360;28;20045;-29
2022/09/07 05:02:29;;;;;;;25.60;23.13;;;17.30;99.90;;;;;;5030796;28;20128;-30
2022/09/07 05:04:54;;;;;;;24.60;22.50;;;17.30;99.90;;;;;;5014244;28;20587;-30
2022/09/07 05:07:20;;;;;;;25.25;22.92;;;17.30;99.90;;;;;;5013886;28;20036;-31
2022/09/07 05:09:46;;;;;;;24.90;22.65;;;17.40;99.90;;;;;;5030378;28;20124;-29
2022/09/07 05:12:12;;;;;;;27.38;24.75;;;17.40;99.90;;;;;;5030653;28;20132;-30
2022/09/07 05:14:37;;;;;;;25.98;23.85;;;17.40;99.90;;;;;;5038247;28;20406;-30
2022/09/07 05:17:03;;;;;;;27.98;25.40;;;17.40;99.90;;;;;;5053613;28;20119;-30
2022/09/07 05:19:29;;;;;;;28.65;26.05;;;17.40;99.90;;;;;;5053773;28;20131;-29
2022/09/07 05:21:56;;;;;;;27.80;25.30;;;17.40;99.90;;;;;;5053721;28;20036;-30
2022/09/07 05:24:22;;;;;;;30.13;27.27;;;17.50;99.90;;;;;;5034895;28;20068;-30
2022/09/07 05:26:47;;;;;;;28.42;25.88;;;17.50;99.90;;;;;;5033602;28;20073;-29
2022/09/07 05:29:13;;;;;;;28.73;25.95;;;17.40;99.90;;;;;;5033801;28;20037;-29
2022/09/07 05:31:39;;;;;;;27.45;24.95;;;17.50;99.90;;;;;;5033736;28;20041;-31
2022/09/07 05:34:05;;;;;;;27.90;25.30;;;17.50;99.90;;;;;;5033396;28;20037;-30
2022/09/07 05:36:31;;;;;;;29.05;26.35;;;17.50;99.90;;;;;;5033629;28;20120;-30
2022/09/07 05:38:58;;;;;;;29.40;26.65;;;17.50;99.90;;;;;;5033308;28;20633;-30
2022/09/07 05:41:25;;;;;;;30.73;27.88;;;17.50;99.90;;;;;;5036510;28;20128;-30
2022/09/07 05:43:53;;;;;;;31.70;28.90;;;17.50;99.90;;;;;;5037062;28;20037;-29
2022/09/07 05:46:19;;;;;;;28.92;26.00;;;17.50;99.90;;;;;;5037296;28;20091;-30
2022/09/07 05:48:45;;;;;;;29.77;27.05;;;17.50;99.90;;;;;;5050954;28;20044;-31
2022/09/07 05:51:12;;;;;;;30.65;27.67;;;17.50;99.90;;;;;;5056816;28;20029;-29
2022/09/07 05:53:40;;;;;;;32.45;29.25;;;17.60;99.90;;;;;;5057209;28;20482;-30
2022/09/07 05:56:07;;;;;;;32.88;29.67;;;17.50;99.90;;;;;;5057218;28;20496;-29
2022/09/07 05:58:34;;;;;;;31.45;28.50;;;17.60;99.90;;;;;;5057186;28;20040;-29
2022/09/07 06:01:09;;;;;;;31.27;27.98;;;17.50;99.90;;;;;;5057038;28;20561;-29
2022/09/07 06:03:37;;;;;;;33.95;30.55;;;17.50;99.90;;;;;;5056774;28;20075;-30
2022/09/07 06:06:15;;;;;;;31.95;28.80;;;17.50;99.90;;;;;;5056821;28;20110;-29
2022/09/07 06:08:52;;;;;;;31.05;28.15;;;17.50;99.90;;;;;;5052595;28;20541;-29
2022/09/07 06:11:20;;;;;;;31.83;28.63;;;17.50;99.90;;;;;;5039721;28;20036;-30
2022/09/07 06:13:46;;;;;;;29.17;26.23;;;17.50;99.90;;;;;;5056876;28;20029;-29
2022/09/07 06:16:13;;;;;;;33.60;30.38;;;17.60;99.90;;;;;;5056782;28;20043;-29
2022/09/07 06:18:44;;;;;;;35.30;31.70;;;17.60;99.90;;;;;;5056777;28;20477;-31
2022/09/07 06:21:21;;;;;;;31.45;28.35;;;17.70;99.90;;;;;;5056546;28;20076;-30
2022/09/07 06:23:47;;;;;;;33.10;29.83;;;17.70;99.90;;;;;;5056676;28;20047;-31
2022/09/07 06:26:15;;;;;;;30.85;27.88;;;17.80;99.90;;;;;;5056168;28;20041;-30
2022/09/07 06:28:43;;;;;;;30.05;27.27;;;17.80;99.90;;;;;;5056577;28;20036;-30
2022/09/07 06:31:20;;;;;;;32.70;29.60;;;17.90;99.90;;;;;;5056427;28;20120;-30
2022/09/07 06:33:46;;;;;;;32.95;29.60;;;18.00;99.90;;;;;;5039439;28;20048;-30
2022/09/07 06:36:14;;;;;;;29.50;26.50;;;18.00;99.90;;;;;;5055950;28;20036;-31
2022/09/07 06:38:40;;;;;;;23.92;21.63;;;18.00;99.90;;;;;;5056153;28;20124;-31
2022/09/07 06:41:08;;;;;;;25.25;22.63;;;18.00;99.90;;;;;;5043038;28;20094;-30
2022/09/07 06:43:35;;;;;;;23.25;20.75;;;18.00;99.90;;;;;;5019646;28;20503;-30
2022/09/07 06:46:01;;;;;;;23.75;21.30;;;18.00;99.90;;;;;;5036240;28;20063;-30
2022/09/07 06:48:27;;;;;;;23.95;21.52;;;18.00;99.90;;;;;;5035881;28;20037;-29
2022/09/07 06:51:02;;;;;;;24.67;22.08;;;18.00;99.90;;;;;;5036021;28;20044;-31
2022/09/07 06:53:34;;;;;;;22.77;20.58;;;18.00;99.90;;;;;;5035335;28;20116;-30
2022/09/07 06:56:01;;;;;;;22.02;19.98;;;18.10;99.90;;;;;;5053716;28;20053;-30
2022/09/07 06:58:27;;;;;;;23.33;20.83;;;18.10;99.90;;;;;;5036086;28;20398;-29
2022/09/07 07:00:53;;;;;;;21.88;19.85;;;18.10;99.90;;;;;;5035944;28;20449;-30
2022/09/07 07:03:20;;;;;;;24.10;21.70;;;18.20;99.90;;;;;;5036106;28;20386;-29
2022/09/07 07:05:56;;;;;;;22.02;19.98;;;18.20;99.90;;;;;;5035722;28;20112;-30
2022/09/07 07:08:23;;;;;;;20.80;18.77;;;18.20;99.90;;;;;;5035633;28;20045;-30
2022/09/07 07:10:50;;;;;;;24.42;21.92;;;18.30;99.90;;;;;;5035761;28;20043;-29
2022/09/07 07:13:17;;;;;;;23.55;21.08;;;18.30;99.90;;;;;;5035845;28;20033;-29
2022/09/07 07:15:43;;;;;;;24.80;22.17;;;18.30;99.90;;;;;;5035767;28;20044;-30
2022/09/07 07:18:10;;;;;;;23.05;20.75;;;18.40;99.90;;;;;;5035713;28;20051;-31
2022/09/07 07:20:37;;;;;;;25.75;22.95;;;18.40;99.90;;;;;;5052068;28;20119;-30
2022/09/07 07:23:02;;;;;;;21.70;19.60;;;18.40;99.90;;;;;;5051923;28;20130;-29
2022/09/07 07:25:29;;;;;;;25.92;23.30;;;18.40;99.90;;;;;;5035491;28;20076;-29
2022/09/07 07:27:55;;;;;;;25.40;22.55;;;18.40;99.90;;;;;;5035634;28;20509;-31
2022/09/07 07:30:21;;;;;;;27.45;22.40;;;18.40;99.90;;;;;;5035085;28;20037;-29
2022/09/07 07:32:47;;;;;;;23.95;21.45;;;18.30;99.90;;;;;;5035464;28;20032;-29
2022/09/07 07:35:13;;;;;;;25.95;22.95;;;18.40;99.90;;;;;;5035336;28;20051;-29
2022/09/07 07:37:39;;;;;;;27.67;24.65;;;18.40;99.90;;;;;;5035011;28;20132;-30
2022/09/07 07:40:08;;;;;;;28.70;25.55;;;18.40;99.90;;;;;;5018721;28;20399;-30
2022/09/07 07:42:35;;;;;;;28.63;25.63;;;18.40;99.90;;;;;;5035197;28;20298;-30
2022/09/07 07:45:01;;;;;;;29.17;25.75;;;18.40;99.90;;;;;;5035190;28;20094;-30
2022/09/07 07:47:27;;;;;;;29.25;25.75;;;18.40;99.90;;;;;;5035119;28;20037;-30
2022/09/07 07:49:53;;;;;;;28.00;24.67;;;18.40;99.90;;;;;;5034775;28;20037;-30
2022/09/07 07:52:19;;;;;;;27.05;24.25;;;18.50;99.90;;;;;;5034711;28;20041;-29
2022/09/07 07:54:45;;;;;;;31.02;25.02;;;18.50;99.90;;;;;;5035006;28;20076;-30
2022/09/07 07:57:11;;;;;;;27.95;25.05;;;18.50;99.90;;;;;;5034766;28;20036;-30
2022/09/07 07:59:37;;;;;;;31.70;26.92;;;18.60;99.90;;;;;;5034687;28;20384;-29
2022/09/07 08:02:08;;;;;;;29.45;26.33;;;18.60;99.90;;;;;;5034720;28;20041;-30
2022/09/07 08:04:34;;;;;;;31.73;26.77;;;18.70;99.90;;;;;;5034427;28;20048;-30
2022/09/07 08:07:01;;;;;;;32.83;29.13;;;18.70;99.90;;;;;;5034650;28;20048;-30
2022/09/07 08:09:27;;;;;;;28.95;25.85;;;18.90;99.90;;;;;;5034863;28;20044;-31
2022/09/07 08:11:52;;;;;;;27.95;24.98;;;19.00;99.90;;;;;;5034690;28;20064;-30
2022/09/07 08:14:18;;;;;;;30.30;26.92;;;19.10;99.90;;;;;;5034484;28;20033;-30
2022/09/07 08:16:45;;;;;;;28.15;25.25;;;19.20;99.90;;;;;;5034444;28;20064;-30
2022/09/07 08:19:13;;;;;;;30.17;26.90;;;19.30;99.90;;;;;;5052132;28;20041;-29
2022/09/07 08:21:39;;;;;;;26.33;23.63;;;19.40;99.90;;;;;;5050243;28;20043;-29
2022/09/07 08:24:05;;;;;;;27.15;24.27;;;19.60;99.90;;;;;;5054887;28;20033;-32
2022/09/07 08:26:31;;;;;;;27.25;24.40;;;19.70;99.90;;;;;;5053825;28;20048;-29
2022/09/07 08:28:57;;;;;;;27.45;24.42;;;19.80;99.90;;;;;;5034188;28;20041;-29
2022/09/07 08:31:23;;;;;;;26.58;23.40;;;19.90;99.90;;;;;;5034351;28;20033;-29
2022/09/07 08:33:49;;;;;;;25.48;22.95;;;19.90;99.90;;;;;;5034105;28;20040;-30
2022/09/07 08:36:17;;;;;;;26.83;24.13;;;19.90;99.90;;;;;;5034485;28;20037;-31
2022/09/07 08:38:43;;;;;;;27.52;24.42;;;19.80;99.90;;;;;;5034205;28;20041;-30
2022/09/07 08:41:29;;;;;;;24.83;22.40;;;19.80;99.90;;;;;;5034305;28;20394;-29
2022/09/07 08:44:02;;;;;;;25.90;23.35;;;19.80;99.90;;;;;;5014636;28;20033;-30
2022/09/07 08:46:39;;;;;;;26.45;23.75;;;19.90;99.90;;;;;;5014573;28;20083;-30
2022/09/07 08:49:14;;;;;;;24.30;21.73;;;19.80;99.90;;;;;;5014195;28;20105;-31
2022/09/07 08:51:45;;;;;;;24.17;21.63;;;19.80;99.90;;;;;;5014565;28;20041;-29
2022/09/07 08:54:13;;;;;;;26.30;23.50;;;19.90;99.90;;;;;;5037104;28;20498;-30
2022/09/07 08:56:46;;;;;;;25.52;22.92;;;20.00;99.90;;;;;;5053802;28;20032;-30
2022/09/07 08:59:37;;;;;;;23.88;21.42;;;20.20;99.90;;;;;;5054162;28;20528;-30
2022/09/07 09:02:09;;;;;;;23.55;21.17;;;20.30;99.90;;;;;;5053594;28;20090;-30
2022/09/07 09:04:35;;;;;;;24.02;20.80;;;20.40;99.90;;;;;;5049681;28;20066;-29
2022/09/07 09:07:38;;;;;;;23.17;20.70;;;20.40;99.90;;;;;;5034124;28;20398;-29
2022/09/07 09:10:28;;;;;;;22.40;20.40;;;20.40;99.90;;;;;;5033764;28;20073;-30
2022/09/07 09:13:05;;;;;;;21.23;19.13;;;20.40;99.90;;;;;;5034022;28;20464;-30
2022/09/07 09:15:52;;;;;;;21.35;19.25;;;20.60;99.90;;;;;;5015979;28;20483;-30
2022/09/07 09:18:28;;;;;;;20.23;18.33;;;21.00;99.90;;;;;;5018166;28;20095;-30
2022/09/07 09:20:55;;;;;;;21.42;19.13;;;21.20;99.90;;;;;;5018022;28;20471;-29
2022/09/07 09:23:36;;;;;;;20.15;18.13;;;21.10;99.90;;;;;;5019747;28;20038;-29
2022/09/07 09:26:21;;;;;;;20.02;17.92;;;21.10;99.90;;;;;;5054186;28;20175;-30
2022/09/07 09:28:47;;;;;;;18.50;16.70;;;20.90;99.90;;;;;;5037869;28;20041;-30
2022/09/07 09:31:22;;;;;;;19.08;17.20;;;20.90;99.90;;;;;;5054279;28;20140;-31
2022/09/07 09:34:11;;;;;;;19.17;17.25;;;21.00;99.90;;;;;;5054338;28;20041;-31
2022/09/07 09:36:49;;;;;;;18.65;16.70;;;21.00;99.90;;;;;;5053975;28;20064;-29
2022/09/07 09:39:34;;;;;;;18.48;16.55;;;21.00;99.90;;;;;;5054202;28;20037;-30
2022/09/07 09:42:15;;;;;;;17.50;15.75;;;21.10;99.90;;;;;;5055333;28;20041;-31
2022/09/07 09:44:42;;;;;;;18.65;16.55;;;21.00;99.90;;;;;;5000994;28;20045;-31
2022/09/07 09:47:27;;;;;;;17.90;16.17;;;21.00;99.90;;;;;;5017860;28;20080;-29
2022/09/07 09:49:54;;;;;;;18.02;15.93;;;21.00;99.90;;;;;;5026143;28;20039;-29
2022/09/07 09:52:22;;;;;;;19.63;16.55;;;21.00;99.90;;;;;;5036582;28;20250;-29
2022/09/07 09:54:52;;;;;;;19.50;17.60;;;21.00;99.90;;;;;;5036618;28;20037;-30
2022/09/07 09:57:45;;;;;;;18.33;16.65;;;21.00;99.90;;;;;;5036581;28;20033;-29
2022/09/07 10:00:15;;;;;;;17.58;15.93;;;21.10;99.90;;;;;;5022855;28;20056;-29
2022/09/07 10:02:57;;;;;;;16.73;15.10;;;21.30;99.90;;;;;;5033687;28;20037;-29
2022/09/07 10:05:28;;;;;;;16.23;14.68;;;21.30;99.90;;;;;;5026759;28;20394;-30
2022/09/07 10:07:55;;;;;;;16.52;15.02;;;21.40;99.90;;;;;;5036023;28;20028;-30
2022/09/07 10:10:21;;;;;;;17.20;15.40;;;21.60;99.90;;;;;;5020331;28;20033;-29
2022/09/07 10:12:50;;;;;;;16.55;14.85;;;21.70;99.90;;;;;;5036067;28;20044;-31
2022/09/07 10:15:30;;;;;;;16.45;14.80;;;21.80;99.90;;;;;;5035891;28;20040;-30
2022/09/07 10:17:57;;;;;;;16.45;14.95;;;21.90;99.90;;;;;;5026870;28;20032;-30
2022/09/07 10:20:36;;;;;;;16.92;15.27;;;21.80;99.90;;;;;;5035938;28;20447;-29
2022/09/07 10:23:04;;;;;;;16.25;14.65;;;21.90;99.90;;;;;;5036460;28;20204;-31
2022/09/07 10:25:38;;;;;;;15.65;14.15;;;22.00;99.90;;;;;;5035360;28;20041;-31
2022/09/07 10:28:10;;;;;;;15.07;13.65;;;22.10;99.90;;;;;;5034964;28;20041;-31
2022/09/07 10:31:02;;;;;;;16.58;15.07;;;22.30;99.90;;;;;;5032309;28;20033;-30
2022/09/07 10:33:51;;;;;;;14.65;13.30;;;22.50;99.90;;;;;;5030874;28;20037;-30
2022/09/07 10:36:26;;;;;;;15.50;14.07;;;22.70;99.90;;;;;;5015942;28;20049;-31
2022/09/07 10:39:12;;;;;;;14.50;13.30;;;22.80;99.90;;;;;;5035939;28;20045;-30
2022/09/07 10:42:08;;;;;;;14.48;13.07;;;22.80;99.90;;;;;;5035650;28;20112;-31
2022/09/07 10:44:43;;;;;;;14.15;12.85;;;22.60;99.90;;;;;;5031946;28;20044;-30
2022/09/07 10:47:50;;;;;;;13.30;12.15;;;22.60;99.90;;;;;;5032033;28;20120;-32
2022/09/07 10:50:30;;;;;;;12.40;11.20;;;22.90;99.90;;;;;;5031866;28;20041;-30
2022/09/07 10:53:22;;;;;;;10.48;9.48;;;23.80;99.90;;;;;;5022014;28;20037;-30
2022/09/07 10:55:58;;;;;;;8.63;7.93;;;24.50;99.90;;;;;;5031427;28;20179;-30
2022/09/07 10:58:57;;;;;;;7.55;6.80;;;24.90;99.90;;;;;;5035512;28;20044;-31
2022/09/07 11:01:45;;;;;;;8.07;7.38;;;25.40;99.90;;;;;;5035313;28;20051;-32
2022/09/07 11:04:20;;;;;;;7.90;7.20;;;25.50;99.90;;;;;;5041695;28;20037;-30
2022/09/07 11:06:51;;;;;;;8.63;7.82;;;25.20;99.90;;;;;;5035225;28;20405;-32
2022/09/07 11:09:35;;;;;;;9.80;9.00;;;25.00;99.90;;;;;;5023030;28;20072;-30
2022/09/07 11:12:18;;;;;;;10.60;8.48;;;24.60;99.90;;;;;;5038834;28;20047;-31
2022/09/07 11:14:51;;;;;;;10.02;9.23;;;24.50;99.90;;;;;;5035159;28;20079;-31
2022/09/07 11:17:22;;;;;;;10.43;9.52;;;24.30;99.90;;;;;;5035372;28;20059;-31
2022/09/07 11:20:18;;;;;;;9.55;8.75;;;24.00;99.90;;;;;;5035017;28;20102;-30
2022/09/07 11:23:12;;;;;;;10.27;9.38;;;23.80;99.90;;;;;;5041678;28;20082;-30
2022/09/07 11:26:00;;;;;;;9.07;8.27;;;23.90;99.90;;;;;;5014836;28;20042;-30
2022/09/07 11:28:33;;;;;;;8.70;7.95;;;24.00;99.90;;;;;;5048434;28;20049;-29
2022/09/07 11:31:06;;;;;;;9.02;8.23;;;24.10;99.90;;;;;;5034847;28;20037;-30
2022/09/07 11:33:49;;;;;;;8.90;8.00;;;24.10;99.90;;;;;;5034865;28;20041;-31
2022/09/07 11:36:17;;;;;;;;;;;24.10;99.90;;;;;;5035092;28;20044;-30
2022/09/07 11:39:10;;;;;;;8.80;8.10;;;23.80;99.90;;;;;;5055853;28;19916;-30
2022/09/07 11:41:40;;;;;;;7.75;7.25;;;23.70;99.90;;;;;;5034602;28;20146;-31
2022/09/07 11:44:28;;;;;;;9.68;8.88;;;23.80;99.90;;;;;;5034547;28;20037;-30
2022/09/07 11:47:04;;;;;;;8.30;7.50;;;23.80;99.90;;;;;;5034531;28;20168;-30
2022/09/07 11:49:29;;;;;;;8.00;7.25;;;23.60;99.90;;;;;;5034363;28;20525;-30
2022/09/07 11:52:05;;;;;;;9.55;8.85;;;23.50;99.90;;;;;;5031401;28;20036;-30
2022/09/07 11:54:55;;;;;;;8.93;8.13;;;23.60;99.90;;;;;;5020375;28;20029;-30
2022/09/07 11:57:33;;;;;;;8.98;8.27;;;23.70;99.90;;;;;;5034317;28;20037;-30
2022/09/07 12:00:06;;;;;;;8.25;7.55;;;24.10;99.90;;;;;;5034629;28;20072;-31
2022/09/07 12:03:11;;;;;;;9.25;8.38;;;24.00;99.90;;;;;;5032881;28;20037;-30
2022/09/07 12:05:58;;;;;;;8.23;7.40;;;24.90;99.90;;;;;;5024091;28;20041;-31
2022/09/07 12:08:30;;;;;;;6.72;6.03;;;25.80;99.90;;;;;;5045871;28;20178;-32
2022/09/07 12:11:20;;;;;;;7.85;7.15;;;26.30;99.90;;;;;;5039693;28;20045;-31
2022/09/07 12:14:20;;;;;;;7.18;6.57;;;26.80;99.90;;;;;;5024147;28;20116;-31
2022/09/07 12:17:24;;;;;;;7.57;6.95;;;27.60;99.90;;;;;;5024170;28;20045;-31
2022/09/07 12:20:17;;;;;;;6.72;6.25;;;28.10;96.60;;;;;;5035922;28;20041;-31
2022/09/07 12:23:03;;;;;;;7.35;6.53;;;28.10;98.40;;;;;;5034171;28;20482;-30
2022/09/07 12:25:30;;;;;;;7.38;6.78;;;28.70;99.70;;;;;;5033841;28;20037;-32
2022/09/07 12:27:56;;;;;;;6.18;5.72;;;29.50;93.60;;;;;;5034246;28;20033;-30
2022/09/07 12:30:22;;;;;;;5.95;5.45;;;30.00;90.90;;;;;;5033317;28;20040;-32
2022/09/07 12:32:52;;;;;;;6.22;5.72;;;30.10;90.40;;;;;;5033985;28;20116;-32
2022/09/07 12:35:30;;;;;;;7.13;5.68;;;30.10;85.50;;;;;;5034108;28;20029;-30
2022/09/07 12:37:57;;;;;;;5.32;4.85;;;29.90;69.00;;;;;;5033896;28;20070;-32
2022/09/07 12:40:26;;;;;;;4.72;4.22;;;29.10;80.60;;;;;;5040468;28;20052;-30
2022/09/07 12:43:11;;;;;;;4.78;4.35;;;28.20;81.10;;;;;;5039078;28;20583;-30
2022/09/07 12:45:37;;;;;;;5.25;4.85;;;27.70;86.90;;;;;;5033200;28;20430;-31
2022/09/07 12:48:25;;;;;;;5.90;5.40;;;27.20;93.30;;;;;;5033588;28;20033;-30
2022/09/07 12:51:09;;;;;;;5.40;4.93;;;27.20;92.90;;;;;;5032703;28;20072;-32
2022/09/07 12:53:54;;;;;;;6.53;4.30;;;27.50;96.50;;;;;;5033806;28;20544;-30
2022/09/07 12:56:36;;;;;;;4.50;4.10;;;28.40;94.90;;;;;;5056777;28;20045;-31
2022/09/07 12:59:39;;;;;;;4.68;4.28;;;30.00;85.40;;;;;;5033653;28;20568;-31